createdAt,value
2018-10-21T00:01:38.047Z,26.87
2018-10-21T00:03:41.731Z,26.37
2018-10-21T00:05:45.264Z,25.97
2018-10-21T00:07:48.774Z,25.47
2018-10-21T00:09:52.298Z,26.27
2018-10-21T00:11:55.829Z,25.87
2018-10-21T00:13:59.430Z,19.93
2018-10-21T00:16:02.937Z,20.07
2018-10-21T00:18:06.541Z,19.63
2018-10-21T00:20:10.090Z,19.43
2018-10-21T00:22:13.618Z,19.03
2018-10-21T00:24:17.159Z,19.60
2018-10-21T00:26:20.691Z,22.57
2018-10-21T00:28:24.241Z,22.00
2018-10-21T00:30:27.883Z,22.77
2018-10-21T00:32:36.750Z,24.27
2018-10-21T00:34:40.416Z,22.30
2018-10-21T00:36:44.028Z,24.47
2018-10-21T00:38:47.571Z,22.83
2018-10-21T00:40:51.205Z,23.70
2018-10-21T00:42:54.743Z,22.63
2018-10-21T00:44:58.354Z,23.73
2018-10-21T00:47:02.170Z,22.57
2018-10-21T00:49:06.167Z,22.27
2018-10-21T00:51:09.836Z,22.27
2018-10-21T00:53:13.370Z,22.93
2018-10-21T00:55:16.997Z,23.57
2018-10-21T00:57:20.558Z,22.77
2018-10-21T00:59:24.125Z,22.17
2018-10-21T01:01:27.674Z,21.53
2018-10-21T01:03:31.163Z,20.90
2018-10-21T01:05:34.682Z,20.40
2018-10-21T01:07:38.346Z,18.30
2018-10-21T01:09:41.832Z,18.00
2018-10-21T01:11:45.440Z,17.20
2018-10-21T01:13:48.934Z,17.33
2018-10-21T01:15:52.461Z,18.50
2018-10-21T01:17:56.941Z,17.97
2018-10-21T01:20:00.550Z,17.40
2018-10-21T01:22:04.213Z,19.03
2018-10-21T01:24:07.979Z,19.00
2018-10-21T01:26:11.574Z,18.87
2018-10-21T01:28:15.168Z,20.30
2018-10-21T01:30:18.754Z,18.77
2018-10-21T01:32:22.498Z,19.10
2018-10-21T01:34:26.044Z,19.80
2018-10-21T01:36:29.900Z,20.87
2018-10-21T01:38:33.281Z,19.40
2018-10-21T01:40:37.981Z,21.73
2018-10-21T01:42:41.604Z,21.50
2018-10-21T01:44:45.100Z,21.97
2018-10-21T01:46:48.802Z,21.07
2018-10-21T01:48:52.306Z,21.20
2018-10-21T01:50:55.919Z,22.13
2018-10-21T01:53:01.469Z,20.27
2018-10-21T01:55:05.245Z,19.50
2018-10-21T01:57:08.787Z,20.90
2018-10-21T01:59:12.348Z,20.77
2018-10-21T02:01:15.870Z,19.40
2018-10-21T02:05:20.793Z,18.63
2018-10-21T02:07:24.343Z,20.93
2018-10-21T02:09:27.859Z,20.00
2018-10-21T02:11:31.535Z,18.90
2018-10-21T02:13:35.055Z,19.17
2018-10-21T02:15:38.553Z,19.00
2018-10-21T02:17:42.284Z,18.80
2018-10-21T02:19:45.778Z,19.37
2018-10-21T02:21:49.328Z,17.70
2018-10-21T02:23:53.050Z,18.97
2018-10-21T02:25:56.611Z,18.20
2018-10-21T02:28:00.151Z,19.17
2018-10-21T02:30:03.999Z,19.63
2018-10-21T02:32:07.716Z,19.57
2018-10-21T02:34:11.209Z,20.20
2018-10-21T02:36:14.977Z,19.40
2018-10-21T02:38:18.543Z,19.03
2018-10-21T02:41:34.156Z,18.60
2018-10-21T02:43:37.689Z,18.20
2018-10-21T02:45:41.237Z,18.70
2018-10-21T02:47:44.857Z,18.60
2018-10-21T02:49:48.536Z,18.10
2018-10-21T02:51:57.603Z,17.63
2018-10-21T02:54:01.402Z,17.10
2018-10-21T02:56:05.147Z,17.93
2018-10-21T02:58:08.653Z,17.40
2018-10-21T03:00:12.310Z,16.93
2018-10-21T03:02:15.911Z,16.73
2018-10-21T03:04:19.647Z,18.67
2018-10-21T03:06:23.269Z,18.30
2018-10-21T03:08:26.961Z,17.53
2018-10-21T03:10:30.702Z,18.10
2018-10-21T03:12:34.240Z,17.10
2018-10-21T03:14:37.781Z,17.70
2018-10-21T03:16:41.291Z,17.43
2018-10-21T03:18:44.803Z,18.57
2018-10-21T03:20:48.491Z,17.10
2018-10-21T03:22:52.000Z,17.40
2018-10-21T03:24:55.586Z,17.93
2018-10-21T03:26:59.225Z,17.00
2018-10-21T03:29:02.770Z,17.13
2018-10-21T03:31:06.293Z,16.87
2018-10-21T03:33:10.204Z,17.70
2018-10-21T03:35:13.663Z,18.03
2018-10-21T03:37:17.320Z,18.20
2018-10-21T03:39:20.939Z,17.23
2018-10-21T03:41:24.502Z,17.90
2018-10-21T03:43:28.095Z,16.17
2018-10-21T03:45:31.628Z,17.23
2018-10-21T03:47:35.162Z,17.50
2018-10-21T03:49:38.710Z,17.20
2018-10-21T03:51:42.295Z,17.80
2018-10-21T03:53:45.894Z,18.97
2018-10-21T03:55:49.657Z,17.83
2018-10-21T03:57:53.496Z,17.83
2018-10-21T03:59:57.020Z,16.93
2018-10-21T04:02:00.529Z,16.97
2018-10-21T04:04:04.144Z,18.00
2018-10-21T04:06:07.712Z,18.00
2018-10-21T04:08:11.257Z,18.13
2018-10-21T04:10:15.506Z,17.97
2018-10-21T04:12:19.104Z,16.93
2018-10-21T04:14:22.596Z,17.07
2018-10-21T04:16:26.116Z,17.13
2018-10-21T04:18:29.631Z,18.20
2018-10-21T04:20:33.310Z,16.70
2018-10-21T04:23:08.506Z,17.27
2018-10-21T04:25:12.080Z,17.07
2018-10-21T04:27:15.603Z,16.73
2018-10-21T04:29:19.119Z,16.50
2018-10-21T04:31:22.677Z,18.73
2018-10-21T04:33:42.188Z,17.37
2018-10-21T04:35:45.703Z,16.60
2018-10-21T04:38:32.492Z,16.13
2018-10-21T04:40:36.015Z,16.47
2018-10-21T04:42:39.551Z,16.40
2018-10-21T04:44:43.313Z,16.00
2018-10-21T04:46:46.930Z,16.03
2018-10-21T04:48:50.498Z,15.90
2018-10-21T04:50:54.067Z,16.50
2018-10-21T04:52:57.757Z,16.67
2018-10-21T04:55:06.654Z,16.80
2018-10-21T04:57:10.161Z,16.43
2018-10-21T04:59:13.812Z,14.97
2018-10-21T05:01:17.317Z,16.40
2018-10-21T05:03:20.987Z,15.70
2018-10-21T05:05:24.550Z,16.20
2018-10-21T05:07:28.184Z,16.80
2018-10-21T05:09:31.656Z,15.63
2018-10-21T05:11:35.335Z,16.03
2018-10-21T05:13:39.076Z,15.63
2018-10-21T05:15:42.618Z,15.10
2018-10-21T05:17:46.140Z,15.77
2018-10-21T05:19:49.659Z,16.43
2018-10-21T05:21:59.883Z,14.73
2018-10-21T05:24:03.483Z,15.63
2018-10-21T05:26:06.984Z,15.40
2018-10-21T05:28:10.673Z,15.57
2018-10-21T05:30:14.586Z,15.70
2018-10-21T05:32:18.191Z,16.30
2018-10-21T05:34:21.718Z,16.43
2018-10-21T05:36:25.248Z,15.17
2018-10-21T05:38:28.769Z,15.47
2018-10-21T05:40:32.339Z,15.40
2018-10-21T05:42:36.029Z,15.80
2018-10-21T05:44:39.536Z,14.90
2018-10-21T05:46:46.712Z,15.73
2018-10-21T05:48:50.136Z,15.40
2018-10-21T05:50:53.822Z,14.83
2018-10-21T05:52:57.358Z,15.47
2018-10-21T05:55:00.855Z,15.73
2018-10-21T05:57:04.368Z,14.93
2018-10-21T05:59:08.215Z,14.53
2018-10-21T06:01:11.731Z,15.47
2018-10-21T06:03:15.329Z,15.57
2018-10-21T06:05:33.771Z,15.33
2018-10-21T06:07:37.311Z,15.97
2018-10-21T06:09:40.824Z,16.67
2018-10-21T06:11:44.414Z,16.57
2018-10-21T06:13:47.968Z,15.97
2018-10-21T06:15:51.602Z,17.40
2018-10-21T06:17:55.130Z,15.47
2018-10-21T06:20:15.753Z,15.87
2018-10-21T06:22:19.333Z,15.80
2018-10-21T06:24:22.995Z,17.10
2018-10-21T06:26:26.520Z,16.30
2018-10-21T06:28:30.040Z,17.13
2018-10-21T06:30:33.579Z,16.60
2018-10-21T06:32:37.144Z,16.47
2018-10-21T06:34:40.853Z,16.37
2018-10-21T06:36:44.488Z,17.23
2018-10-21T06:38:48.034Z,17.40
2018-10-21T06:40:51.573Z,17.73
2018-10-21T06:42:55.147Z,17.13
2018-10-21T06:44:58.948Z,17.07
2018-10-21T06:47:02.512Z,16.77
2018-10-21T06:49:06.204Z,16.07
2018-10-21T06:51:09.790Z,17.27
2018-10-21T06:53:13.328Z,17.63
2018-10-21T06:55:16.967Z,15.90
2018-10-21T06:57:20.754Z,16.60
2018-10-21T06:59:24.013Z,17.13
2018-10-21T07:01:27.881Z,16.60
2018-10-21T07:03:31.531Z,18.37
2018-10-21T07:06:41.115Z,16.70
2018-10-21T07:08:45.262Z,16.43
2018-10-21T07:10:48.804Z,16.63
2018-10-21T07:12:52.539Z,17.07
2018-10-21T07:14:56.075Z,16.50
2018-10-21T07:16:59.764Z,16.50
2018-10-21T07:19:03.376Z,16.87
2018-10-21T07:21:07.006Z,16.70
2018-10-21T07:23:10.613Z,16.37
2018-10-21T07:25:14.451Z,17.43
2018-10-21T07:27:18.023Z,16.93
2018-10-21T07:29:21.580Z,16.47
2018-10-21T07:31:25.091Z,17.47
2018-10-21T07:33:28.873Z,15.83
2018-10-21T07:35:32.399Z,17.50
2018-10-21T07:37:35.968Z,17.07
2018-10-21T07:39:40.129Z,16.73
2018-10-21T07:41:44.203Z,16.90
2018-10-21T07:43:47.960Z,17.57
2018-10-21T07:45:51.603Z,17.87
2018-10-21T07:47:55.214Z,17.10
2018-10-21T07:49:58.934Z,19.00
2018-10-21T07:52:02.584Z,18.03
2018-10-21T07:54:06.560Z,17.47
2018-10-21T07:56:10.180Z,17.77
2018-10-21T07:58:13.870Z,17.67
2018-10-21T08:00:17.871Z,19.40
2018-10-21T08:02:21.525Z,18.37
2018-10-21T08:04:25.029Z,17.60
2018-10-21T08:06:39.474Z,17.50
2018-10-21T08:08:43.073Z,18.17
2018-10-21T08:10:46.568Z,18.43
2018-10-21T08:12:50.227Z,18.77
2018-10-21T08:14:53.845Z,18.17
2018-10-21T08:16:57.589Z,19.23
2018-10-21T08:19:01.128Z,19.10
2018-10-21T08:21:04.763Z,18.50
2018-10-21T08:23:09.763Z,19.70
2018-10-21T08:25:13.365Z,20.37
2018-10-21T08:27:17.021Z,19.90
2018-10-21T08:29:20.513Z,19.83
2018-10-21T08:31:24.186Z,22.20
2018-10-21T08:33:27.720Z,22.07
2018-10-21T08:35:31.210Z,21.57
2018-10-21T08:37:34.912Z,20.47
2018-10-21T08:39:38.433Z,20.80
2018-10-21T08:41:41.971Z,22.13
2018-10-21T08:43:45.640Z,22.00
2018-10-21T08:45:49.208Z,19.87
2018-10-21T08:47:52.752Z,19.03
2018-10-21T08:49:56.383Z,20.00
2018-10-21T08:52:06.460Z,18.83
2018-10-21T08:54:09.942Z,20.00
2018-10-21T08:56:13.465Z,21.37
2018-10-21T08:58:17.052Z,20.83
2018-10-21T09:00:20.759Z,19.77
2018-10-21T09:02:24.398Z,17.87
2018-10-21T09:04:28.168Z,16.47
2018-10-21T09:06:31.711Z,15.53
2018-10-21T09:08:35.334Z,15.73
2018-10-21T09:10:39.084Z,13.90
2018-10-21T09:12:42.738Z,14.03
2018-10-21T09:14:47.027Z,11.83
2018-10-21T09:16:50.789Z,11.07
2018-10-21T09:18:54.378Z,10.60
2018-10-21T09:20:58.054Z,10.20
2018-10-21T09:23:01.568Z,9.60
2018-10-21T09:25:05.672Z,8.00
2018-10-21T09:27:09.263Z,6.03
2018-10-21T09:29:12.814Z,6.37
2018-10-21T09:31:16.459Z,6.30
2018-10-21T09:33:20.030Z,7.13
2018-10-21T09:35:23.535Z,6.80
2018-10-21T09:37:27.096Z,6.70
2018-10-21T09:39:30.745Z,7.70
2018-10-21T09:41:34.452Z,8.30
2018-10-21T09:43:38.000Z,7.30
2018-10-21T09:45:41.584Z,5.93
2018-10-21T09:47:45.528Z,7.70
2018-10-21T09:49:49.152Z,7.47
2018-10-21T09:51:52.656Z,7.10
2018-10-21T09:53:56.156Z,6.10
2018-10-21T09:55:59.683Z,5.13
2018-10-21T09:58:03.341Z,5.30
2018-10-21T10:00:06.976Z,5.40
2018-10-21T10:02:15.940Z,5.47
2018-10-21T10:04:19.644Z,5.17
2018-10-21T10:06:23.173Z,5.17
2018-10-21T10:08:26.692Z,6.07
2018-10-21T10:10:30.353Z,4.90
2018-10-21T10:12:33.887Z,5.00
2018-10-21T10:14:37.510Z,5.43
2018-10-21T10:16:41.195Z,5.00
2018-10-21T10:18:44.810Z,5.20
2018-10-21T10:20:48.319Z,4.70
2018-10-21T10:22:51.829Z,4.03
2018-10-21T10:24:55.376Z,3.43
2018-10-21T10:26:58.879Z,3.40
2018-10-21T10:29:02.393Z,3.47
2018-10-21T10:31:06.257Z,2.40
2018-10-21T10:33:09.805Z,2.43
2018-10-21T10:35:14.373Z,2.90
2018-10-21T10:37:18.016Z,2.20
2018-10-21T10:39:21.553Z,2.20
2018-10-21T10:41:25.168Z,2.37
2018-10-21T10:43:28.856Z,3.10
2018-10-21T10:45:32.380Z,3.07
2018-10-21T10:47:36.109Z,3.40
2018-10-21T10:49:39.749Z,3.97
2018-10-21T10:51:43.378Z,3.63
2018-10-21T10:53:47.021Z,3.57
2018-10-21T10:55:51.730Z,2.70
2018-10-21T10:57:55.316Z,3.30
2018-10-21T10:59:59.005Z,3.53
2018-10-21T11:02:02.314Z,3.60
2018-10-21T11:04:05.843Z,3.10
2018-10-21T11:06:09.368Z,3.20
2018-10-21T11:08:12.880Z,3.10
2018-10-21T11:10:16.480Z,2.93
2018-10-21T11:12:20.074Z,3.20
2018-10-21T11:14:23.672Z,2.83
2018-10-21T11:16:27.447Z,2.63
2018-10-21T11:18:31.111Z,2.93
2018-10-21T11:20:34.673Z,3.30
2018-10-21T11:22:38.455Z,2.70
2018-10-21T11:24:47.078Z,2.93
2018-10-21T11:26:50.812Z,2.67
2018-10-21T11:28:54.396Z,3.30
2018-10-21T11:30:57.980Z,3.33
2018-10-21T11:33:01.472Z,3.40
2018-10-21T11:35:05.785Z,3.80
2018-10-21T11:37:09.799Z,3.60
2018-10-21T11:39:13.281Z,4.40
2018-10-21T11:41:16.877Z,4.00
2018-10-21T11:45:19.235Z,4.60
2018-10-21T11:47:22.746Z,3.80
2018-10-21T11:49:26.305Z,3.97
2018-10-21T11:51:29.897Z,4.23
2018-10-21T11:53:33.462Z,4.10
2018-10-21T11:55:41.959Z,3.70
2018-10-21T11:57:45.459Z,3.33
2018-10-21T11:59:48.994Z,3.87
2018-10-21T12:01:52.707Z,3.00
2018-10-21T12:03:56.281Z,3.77
2018-10-21T12:05:59.969Z,3.77
2018-10-21T12:08:03.593Z,3.13
2018-10-21T12:10:07.772Z,3.50
2018-10-21T12:12:11.344Z,3.43
2018-10-21T12:14:14.868Z,2.83
2018-10-21T12:16:18.443Z,3.93
2018-10-21T12:18:21.904Z,3.00
2018-10-21T12:20:25.433Z,2.43
2018-10-21T12:22:29.274Z,3.00
2018-10-21T12:24:32.763Z,3.87
2018-10-21T12:26:36.377Z,3.20
2018-10-21T12:28:39.954Z,2.67
2018-10-21T12:30:43.703Z,2.97
2018-10-21T12:32:47.276Z,2.80
2018-10-21T12:34:50.822Z,2.50
2018-10-21T12:36:54.468Z,2.50
2018-10-21T12:38:58.053Z,2.30
2018-10-21T12:41:01.627Z,2.40
2018-10-21T12:43:05.273Z,2.07
2018-10-21T12:45:10.380Z,2.57
2018-10-21T12:47:13.878Z,2.43
2018-10-21T12:49:17.498Z,3.27
2018-10-21T12:51:20.979Z,3.10
2018-10-21T12:53:24.617Z,2.53
2018-10-21T12:55:28.133Z,3.00
2018-10-21T12:57:31.684Z,2.60
2018-10-21T12:59:35.199Z,2.70
2018-10-21T13:01:38.862Z,3.20
2018-10-21T13:03:42.398Z,2.73
2018-10-21T13:05:46.004Z,2.50
2018-10-21T13:07:49.671Z,2.80
2018-10-21T13:09:53.290Z,3.13
2018-10-21T13:11:56.983Z,3.00
2018-10-21T13:14:00.644Z,2.40
2018-10-21T13:16:04.308Z,2.73
2018-10-21T13:18:07.786Z,2.87
2018-10-21T13:20:11.285Z,2.80
2018-10-21T13:22:15.023Z,2.40
2018-10-21T13:24:18.462Z,2.90
2018-10-21T13:26:22.041Z,2.70
2018-10-21T13:28:25.840Z,3.10
2018-10-21T13:30:29.309Z,2.77
2018-10-21T13:32:32.815Z,3.23
2018-10-21T13:34:36.408Z,2.63
2018-10-21T13:36:39.896Z,2.30
2018-10-21T13:38:43.424Z,2.70
2018-10-21T13:40:47.021Z,3.03
2018-10-21T13:42:50.596Z,2.57
2018-10-21T13:44:54.332Z,2.60
2018-10-21T13:46:58.023Z,2.83
2018-10-21T13:49:01.603Z,2.70
2018-10-21T13:51:05.704Z,2.50
2018-10-21T13:53:09.339Z,2.80
2018-10-21T13:55:13.363Z,2.50
2018-10-21T13:57:16.900Z,2.30
2018-10-21T13:59:20.419Z,2.57
2018-10-21T14:01:24.163Z,2.20
2018-10-21T14:03:27.633Z,2.47
2018-10-21T14:05:31.241Z,2.80
2018-10-21T14:07:34.934Z,2.43
2018-10-21T14:09:38.696Z,2.40
2018-10-21T14:11:42.368Z,2.90
2018-10-21T14:13:45.989Z,2.90
2018-10-21T14:15:49.587Z,2.27
2018-10-21T14:17:53.141Z,2.30
2018-10-21T14:19:56.673Z,2.20
2018-10-21T14:22:00.254Z,2.47
2018-10-21T14:24:03.806Z,2.40
2018-10-21T14:26:07.364Z,2.77
2018-10-21T14:28:10.961Z,2.60
2018-10-21T14:30:14.572Z,2.20
2018-10-21T14:32:18.146Z,2.30
2018-10-21T14:34:21.772Z,2.80
2018-10-21T14:36:25.285Z,3.33
2018-10-21T14:38:28.996Z,2.60
2018-10-21T14:40:32.423Z,2.80
2018-10-21T14:42:36.103Z,2.50
2018-10-21T14:44:39.675Z,2.90
2018-10-21T14:46:43.167Z,2.30
2018-10-21T14:48:46.719Z,2.10
2018-10-21T14:50:50.245Z,2.33
2018-10-21T14:52:53.753Z,2.60
2018-10-21T14:54:57.316Z,2.57
2018-10-21T14:57:01.077Z,2.30
2018-10-21T14:59:04.555Z,2.47
2018-10-21T15:01:08.136Z,2.30
2018-10-21T15:03:12.012Z,2.30
2018-10-21T15:05:15.340Z,2.73
2018-10-21T15:07:18.967Z,2.23
2018-10-21T15:09:22.581Z,2.43
2018-10-21T15:11:26.324Z,2.63
2018-10-21T15:13:30.078Z,2.47
2018-10-21T15:15:33.622Z,3.27
2018-10-21T15:17:37.260Z,3.27
2018-10-21T15:19:41.035Z,3.23
2018-10-21T15:21:44.664Z,2.83
2018-10-21T15:23:48.188Z,2.90
2018-10-21T15:25:51.744Z,7.00
2018-10-21T15:27:55.275Z,4.30
2018-10-21T15:29:58.931Z,3.40
2018-10-21T15:32:02.497Z,2.50
2018-10-21T15:34:06.066Z,2.80
2018-10-21T15:36:09.659Z,2.60
2018-10-21T15:38:13.275Z,2.20
2018-10-21T15:40:16.767Z,2.13
2018-10-21T15:42:20.256Z,2.27
2018-10-21T15:44:23.808Z,2.20
2018-10-21T15:46:27.362Z,2.10
2018-10-21T15:48:31.015Z,2.50
2018-10-21T15:50:34.853Z,2.00
2018-10-21T15:52:38.364Z,2.20
2018-10-21T15:54:41.929Z,6.30
2018-10-21T15:56:45.582Z,3.97
2018-10-21T15:58:49.338Z,13.03
2018-10-21T16:00:52.921Z,9.13
2018-10-21T16:02:56.476Z,3.07
2018-10-21T16:05:00.041Z,7.33
2018-10-21T16:07:03.885Z,8.67
2018-10-21T16:09:10.047Z,5.17
2018-10-21T16:11:13.584Z,4.40
2018-10-21T16:13:17.179Z,3.17
2018-10-21T16:15:20.712Z,12.00
2018-10-21T16:17:24.229Z,4.60
2018-10-21T16:19:28.318Z,14.63
2018-10-21T16:21:31.829Z,11.10
2018-10-21T16:23:35.348Z,3.60
2018-10-21T16:25:39.161Z,5.70
2018-10-21T16:27:42.888Z,5.10
2018-10-21T16:29:46.441Z,2.63
2018-10-21T16:31:50.054Z,2.10
2018-10-21T16:33:53.591Z,2.47
2018-10-21T16:35:57.175Z,2.17
2018-10-21T16:38:00.820Z,2.20
2018-10-21T16:40:04.475Z,2.40
2018-10-21T16:42:08.021Z,2.37
2018-10-21T16:44:11.671Z,2.53
2018-10-21T16:46:15.198Z,3.37
2018-10-21T16:48:18.738Z,3.00
2018-10-21T16:50:22.226Z,3.07
2018-10-21T16:52:25.794Z,3.23
2018-10-21T16:54:29.492Z,3.03
2018-10-21T16:56:33.216Z,3.73
2018-10-21T16:58:36.760Z,4.27
2018-10-21T17:00:40.533Z,4.17
2018-10-21T17:02:44.104Z,3.80
2018-10-21T17:04:48.008Z,3.73
2018-10-21T17:06:51.539Z,3.03
2018-10-21T17:08:55.156Z,3.53
2018-10-21T17:10:58.904Z,2.70
2018-10-21T17:13:02.371Z,2.80
2018-10-21T17:15:07.150Z,5.30
2018-10-21T17:17:10.911Z,3.90
2018-10-21T17:19:14.523Z,4.90
2018-10-21T17:21:18.129Z,6.27
2018-10-21T17:23:21.740Z,4.83
2018-10-21T17:25:25.358Z,4.60
2018-10-21T17:27:28.898Z,4.23
2018-10-21T17:29:32.487Z,4.70
2018-10-21T17:31:36.026Z,5.33
2018-10-21T17:33:39.597Z,4.60
2018-10-21T17:35:43.113Z,5.23
2018-10-21T17:37:46.755Z,5.33
2018-10-21T17:39:50.350Z,5.43
2018-10-21T17:41:54.021Z,6.30
2018-10-21T17:43:57.688Z,6.23
2018-10-21T17:46:01.273Z,6.20
2018-10-21T17:48:05.452Z,6.23
2018-10-21T17:50:10.384Z,8.07
2018-10-21T17:52:14.150Z,9.90
2018-10-21T17:54:17.595Z,11.13
2018-10-21T17:56:21.270Z,7.90
2018-10-21T17:58:25.103Z,9.47
2018-10-21T18:00:28.616Z,7.93
2018-10-21T18:02:32.172Z,7.97
2018-10-21T18:04:35.756Z,9.47
2018-10-21T18:06:39.509Z,8.27
2018-10-21T18:08:43.180Z,10.83
2018-10-21T18:10:46.724Z,7.10
2018-10-21T18:12:50.266Z,6.43
2018-10-21T18:14:53.976Z,7.87
2018-10-21T18:16:57.495Z,6.10
2018-10-21T18:19:01.392Z,6.43
2018-10-21T18:21:05.236Z,7.07
2018-10-21T18:23:08.934Z,7.27
2018-10-21T18:25:12.556Z,6.60
2018-10-21T18:27:16.148Z,6.97
2018-10-21T18:29:19.740Z,6.17
2018-10-21T18:31:23.344Z,5.23
2018-10-21T18:33:26.941Z,5.40
2018-10-21T18:35:30.484Z,5.47
2018-10-21T18:37:34.040Z,7.60
2018-10-21T18:39:37.770Z,7.40
2018-10-21T18:41:41.463Z,7.33
2018-10-21T18:43:45.022Z,5.57
2018-10-21T18:45:48.624Z,5.10
2018-10-21T18:47:52.409Z,4.30
2018-10-21T18:49:56.077Z,4.70
2018-10-21T18:51:59.705Z,5.53
2018-10-21T18:54:03.428Z,5.00
2018-10-21T18:56:06.960Z,4.47
2018-10-21T18:58:10.592Z,3.67
2018-10-21T19:00:16.502Z,3.80
2018-10-21T19:02:20.075Z,5.17
2018-10-21T19:04:23.615Z,4.00
2018-10-21T19:06:27.279Z,4.23
2018-10-21T19:08:30.848Z,3.77
2018-10-21T19:10:34.368Z,4.00
2018-10-21T19:12:38.186Z,4.40
2018-10-21T19:14:41.769Z,4.40
2018-10-21T19:16:45.361Z,5.13
2018-10-21T19:18:48.968Z,5.57
2018-10-21T19:20:52.561Z,5.40
2018-10-21T19:22:56.076Z,5.70
2018-10-21T19:24:59.830Z,5.77
2018-10-21T19:27:03.513Z,5.23
2018-10-21T19:29:07.175Z,4.90
2018-10-21T19:31:10.780Z,4.33
2018-10-21T19:33:14.448Z,4.47
2018-10-21T19:35:18.238Z,4.30
2018-10-21T19:37:21.782Z,4.30
2018-10-21T19:39:25.442Z,3.80
2018-10-21T19:41:28.996Z,3.50
2018-10-21T19:43:32.666Z,4.00
2018-10-21T19:45:36.096Z,4.93
2018-10-21T19:47:39.945Z,7.53
2018-10-21T19:49:43.585Z,8.63
2018-10-21T19:51:47.358Z,10.27
2018-10-21T19:53:50.969Z,9.93
2018-10-21T19:55:54.738Z,11.10
2018-10-21T19:57:58.347Z,12.43
2018-10-21T20:00:01.928Z,10.87
2018-10-21T20:02:05.791Z,10.70
2018-10-21T20:04:09.435Z,9.00
2018-10-21T20:06:13.196Z,9.40
2018-10-21T20:08:16.877Z,11.13
2018-10-21T20:10:20.549Z,10.07
2018-10-21T20:12:24.187Z,10.03
2018-10-21T20:14:27.773Z,9.43
2018-10-21T20:16:31.451Z,7.37
2018-10-21T20:18:35.015Z,7.27
2018-10-21T20:20:38.721Z,6.70
2018-10-21T20:22:42.322Z,7.13
2018-10-21T20:24:46.104Z,7.40
2018-10-21T20:26:49.773Z,7.37
2018-10-21T20:28:53.362Z,6.93
2018-10-21T20:30:57.276Z,7.23
2018-10-21T20:33:00.820Z,7.27
2018-10-21T20:35:05.000Z,7.80
2018-10-21T20:37:08.789Z,8.17
2018-10-21T20:39:12.363Z,7.87
2018-10-21T20:41:16.033Z,8.17
2018-10-21T20:43:19.602Z,7.87
2018-10-21T20:45:23.153Z,6.80
2018-10-21T20:47:26.691Z,6.67
2018-10-21T20:49:30.423Z,7.30
2018-10-21T20:51:34.124Z,7.07
2018-10-21T20:53:37.624Z,7.77
2018-10-21T20:55:41.271Z,6.93
2018-10-21T20:57:44.898Z,6.30
2018-10-21T20:59:48.622Z,9.57
2018-10-21T21:01:52.188Z,7.73
2018-10-21T21:03:55.737Z,7.43
2018-10-21T21:05:59.271Z,6.60
2018-10-21T21:08:02.891Z,6.87
2018-10-21T21:10:13.162Z,6.77
2018-10-21T21:12:16.741Z,6.60
2018-10-21T21:14:20.348Z,7.40
2018-10-21T21:16:23.975Z,7.17
2018-10-21T21:18:27.535Z,6.97
2018-10-21T21:20:31.205Z,6.30
2018-10-21T21:22:34.970Z,6.33
2018-10-21T21:24:38.710Z,7.97
2018-10-21T21:26:42.217Z,6.90
2018-10-21T21:28:45.788Z,6.43
2018-10-21T21:30:49.594Z,7.67
2018-10-21T21:32:53.092Z,7.70
2018-10-21T21:34:56.676Z,7.30
2018-10-21T21:37:00.249Z,9.23
2018-10-21T21:39:05.058Z,8.70
2018-10-21T21:41:08.644Z,9.27
2018-10-21T21:43:12.201Z,8.07
2018-10-21T21:45:15.811Z,6.53
2018-10-21T21:47:19.534Z,6.70
2018-10-21T21:49:23.031Z,6.77
2018-10-21T21:51:26.528Z,9.47
2018-10-21T21:53:30.056Z,8.20
2018-10-21T21:55:33.584Z,6.53
2018-10-21T21:57:37.310Z,6.10
2018-10-21T21:59:40.815Z,7.90
2018-10-21T22:01:44.428Z,9.47
2018-10-21T22:03:48.444Z,5.20
2018-10-21T22:05:51.972Z,6.80
2018-10-21T22:07:55.573Z,8.43
2018-10-21T22:09:59.196Z,6.73
2018-10-21T22:12:02.746Z,4.30
2018-10-21T22:14:06.688Z,4.03
2018-10-21T22:16:10.396Z,3.53
2018-10-21T22:18:14.044Z,4.83
2018-10-21T22:20:17.516Z,4.30
2018-10-21T22:22:21.068Z,4.40
2018-10-21T22:24:24.752Z,4.40
2018-10-21T22:26:28.409Z,4.60
2018-10-21T22:28:32.047Z,4.23
2018-10-21T22:30:35.641Z,4.80
2018-10-21T22:32:39.273Z,5.07
2018-10-21T22:34:42.947Z,5.40
2018-10-21T22:36:46.502Z,5.20
2018-10-21T22:38:50.191Z,5.53
2018-10-21T22:40:53.740Z,5.30
2018-10-21T22:42:57.295Z,5.67
2018-10-21T22:45:00.995Z,5.50
2018-10-21T22:47:04.619Z,4.80
2018-10-21T22:49:08.255Z,5.20
2018-10-21T22:51:11.768Z,4.93
2018-10-21T22:53:15.340Z,5.33
2018-10-21T22:55:19.001Z,7.57
2018-10-21T22:57:22.553Z,6.70
2018-10-21T22:59:26.300Z,6.23
2018-10-21T23:01:29.858Z,5.73
2018-10-21T23:03:33.575Z,7.87
2018-10-21T23:05:37.088Z,5.77
2018-10-21T23:07:40.631Z,6.37
2018-10-21T23:09:44.270Z,6.27
2018-10-21T23:11:47.867Z,5.17
2018-10-21T23:13:51.392Z,5.97
2018-10-21T23:15:55.182Z,5.23
2018-10-21T23:17:58.727Z,5.70
2018-10-21T23:20:02.283Z,5.87
2018-10-21T23:22:06.011Z,5.43
2018-10-21T23:24:09.569Z,5.57
2018-10-21T23:26:13.225Z,5.57
2018-10-21T23:28:16.955Z,5.40
2018-10-21T23:30:20.566Z,5.50
2018-10-21T23:32:24.056Z,5.53
2018-10-21T23:34:28.058Z,5.77
2018-10-21T23:36:31.575Z,5.57
2018-10-21T23:38:35.141Z,6.87
2018-10-21T23:40:38.784Z,6.80
2018-10-21T23:42:42.298Z,5.67
2018-10-21T23:44:45.863Z,5.80
2018-10-21T23:46:50.242Z,6.03
2018-10-21T23:48:53.757Z,6.67
2018-10-21T23:50:57.328Z,6.17
2018-10-21T23:53:00.936Z,6.57
2018-10-21T23:55:04.605Z,7.23
2018-10-21T23:57:08.383Z,6.03
2018-10-21T23:59:12.428Z,5.63
